Time;durP1;ratioP1;P1;durP2;ratioP2;P2;SDS_P1;SDS_P2;PMS_P1;PMS_P2;Temp;Humidity;BMP_temperature;BMP_pressure;BME280_temperature;BME280_humidity;BME280_pressure;Samples;Min_cycle;Max_cycle;Signal;HPM_P1;HPM_P2
2023/10/26 00:00:59;;;;;;;11.18;5.85;;;15.50;97.60;;;;;;7383663;19;20015;-73
2023/10/26 00:03:27;;;;;;;10.95;5.43;;;15.50;97.70;;;;;;7383790;19;20017;-73
2023/10/26 00:05:56;;;;;;;12.38;4.95;;;15.60;97.60;;;;;;7405132;19;20070;-73
2023/10/26 00:08:25;;;;;;;10.27;4.88;;;15.60;97.60;;;;;;7382439;19;20020;-73
2023/10/26 00:10:54;;;;;;;11.02;5.38;;;15.60;97.60;;;;;;7382895;19;20007;-73
2023/10/26 00:13:22;;;;;;;9.70;5.38;;;15.60;97.60;;;;;;7383259;19;20015;-72
2023/10/26 00:15:54;;;;;;;8.48;5.15;;;15.60;97.60;;;;;;7382101;19;20297;-72
2023/10/26 00:18:22;;;;;;;17.50;5.35;;;15.60;97.60;;;;;;7381074;19;20006;-73
2023/10/26 00:20:51;;;;;;;8.98;5.25;;;15.70;97.60;;;;;;7404451;19;20011;-73
2023/10/26 00:23:20;;;;;;;11.88;4.97;;;15.60;97.50;;;;;;7382354;19;20397;-73
2023/10/26 00:25:49;;;;;;;14.40;5.05;;;15.70;97.50;;;;;;7381808;19;20016;-71
2023/10/26 00:28:18;;;;;;;7.88;4.22;;;15.60;97.50;;;;;;7382949;19;20011;-71
2023/10/26 00:30:48;;;;;;;8.90;5.13;;;15.60;97.40;;;;;;7382460;19;20006;-72
2023/10/26 00:33:20;;;;;;;7.22;4.22;;;15.70;97.40;;;;;;7385538;19;20007;-72
2023/10/26 00:35:50;;;;;;;7.80;4.10;;;15.70;97.40;;;;;;7402819;19;20015;-72
2023/10/26 00:38:19;;;;;;;7.50;4.57;;;15.60;97.40;;;;;;7381895;19;20009;-71
2023/10/26 00:40:48;;;;;;;7.07;4.70;;;15.70;97.50;;;;;;7382582;19;20457;-72
2023/10/26 00:43:22;;;;;;;7.70;4.30;;;15.60;97.50;;;;;;7380952;19;20018;-73
2023/10/26 00:45:53;;;;;;;6.30;4.18;;;15.60;97.60;;;;;;7382557;19;20003;-72
2023/10/26 00:48:26;;;;;;;8.02;4.55;;;15.70;97.60;;;;;;7382106;19;20067;-72
2023/10/26 00:50:55;;;;;;;6.75;4.53;;;15.70;97.70;;;;;;7403929;19;20014;-72
2023/10/26 00:53:24;;;;;;;15.25;4.38;;;15.70;97.70;;;;;;7380054;19;20009;-72
2023/10/26 00:55:54;;;;;;;8.50;4.50;;;15.70;97.70;;;;;;7380449;19;20019;-73
2023/10/26 00:58:26;;;;;;;8.20;4.20;;;15.70;97.80;;;;;;7382013;19;20012;-74
2023/10/26 01:00:55;;;;;;;12.23;5.20;;;15.70;97.80;;;;;;7381487;19;20683;-73
2023/10/26 01:03:30;;;;;;;12.25;5.90;;;15.70;97.90;;;;;;7381709;19;20027;-72
2023/10/26 01:05:58;;;;;;;11.73;6.10;;;15.70;97.90;;;;;;7403319;19;20117;-72
2023/10/26 01:08:27;;;;;;;10.55;6.15;;;15.70;98.00;;;;;;7380921;19;20011;-72
2023/10/26 01:10:57;;;;;;;12.05;6.75;;;15.70;98.10;;;;;;7380677;19;20034;-73
2023/10/26 01:13:26;;;;;;;13.98;7.20;;;15.70;98.10;;;;;;7381687;19;20007;-73
2023/10/26 01:15:55;;;;;;;10.68;6.47;;;15.70;98.20;;;;;;7380853;19;20027;-73
2023/10/26 01:18:26;;;;;;;9.48;6.88;;;15.70;98.30;;;;;;7382191;19;20027;-73
2023/10/26 01:20:55;;;;;;;13.50;7.28;;;15.70;98.20;;;;;;7401580;19;20006;-73
2023/10/26 01:23:27;;;;;;;14.15;6.68;;;15.70;98.30;;;;;;7381750;19;20006;-72
2023/10/26 01:25:58;;;;;;;14.15;7.10;;;15.70;98.40;;;;;;7382316;19;20007;-73
2023/10/26 01:28:27;;;;;;;10.85;6.38;;;15.70;98.40;;;;;;7382332;19;20007;-73
2023/10/26 01:30:56;;;;;;;13.10;6.80;;;15.70;98.50;;;;;;7380965;19;20094;-72
2023/10/26 01:33:24;;;;;;;15.07;6.88;;;15.70;98.40;;;;;;7380621;19;20259;-73
2023/10/26 01:35:53;;;;;;;11.95;6.82;;;15.60;98.40;;;;;;7400650;19;20022;-74
2023/10/26 01:38:22;;;;;;;9.57;6.07;;;15.60;98.60;;;;;;7379723;19;20002;-73
2023/10/26 01:40:53;;;;;;;10.25;6.57;;;15.60;98.60;;;;;;7379977;19;20010;-72
2023/10/26 01:43:22;;;;;;;;;;;15.60;98.60;;;;;;7380179;19;20007;-73
2023/10/26 01:45:50;;;;;;;11.95;6.80;;;15.60;98.70;;;;;;7380368;19;20146;-72
2023/10/26 01:48:19;;;;;;;8.27;6.22;;;15.60;98.70;;;;;;7380008;19;20362;-72
2023/10/26 01:50:48;;;;;;;13.48;5.72;;;15.60;98.80;;;;;;7401543;19;20015;-73
2023/10/26 01:53:17;;;;;;;11.25;6.25;;;15.60;98.80;;;;;;7379264;19;20002;-72
2023/10/26 01:55:45;;;;;;;8.82;5.38;;;15.60;98.90;;;;;;7379040;19;20002;-72
2023/10/26 01:58:16;;;;;;;7.50;5.95;;;15.60;98.90;;;;;;7378839;19;20007;-72
2023/10/26 02:00:45;;;;;;;7.75;5.80;;;15.60;99.00;;;;;;7379792;19;20006;-71
2023/10/26 02:03:15;;;;;;;8.18;6.00;;;15.60;99.10;;;;;;7401281;19;20006;-72
2023/10/26 02:05:44;;;;;;;8.88;5.60;;;15.60;99.10;;;;;;7377449;19;20362;-72
2023/10/26 02:08:13;;;;;;;7.25;5.13;;;15.60;99.10;;;;;;7379552;19;20074;-71
2023/10/26 02:10:42;;;;;;;10.88;6.13;;;15.60;99.10;;;;;;7379204;19;20003;-71
2023/10/26 02:13:11;;;;;;;8.05;5.65;;;15.60;99.10;;;;;;7378910;19;20243;-72
2023/10/26 02:15:42;;;;;;;8.00;5.88;;;15.60;99.20;;;;;;7378828;19;20007;-72
2023/10/26 02:18:11;;;;;;;12.95;5.72;;;15.60;99.20;;;;;;7401087;19;20010;-72
2023/10/26 02:20:40;;;;;;;8.75;5.65;;;15.70;99.20;;;;;;7378476;19;20681;-72
2023/10/26 02:23:08;;;;;;;10.63;5.38;;;15.60;99.20;;;;;;7378590;19;20073;-71
2023/10/26 02:25:37;;;;;;;6.95;5.05;;;15.60;99.30;;;;;;7378920;19;20023;-73
2023/10/26 02:28:06;;;;;;;9.10;5.65;;;15.70;99.30;;;;;;7378007;19;20104;-71
2023/10/26 02:30:34;;;;;;;8.77;5.18;;;15.60;99.30;;;;;;7378933;19;20006;-72
2023/10/26 02:33:06;;;;;;;8.10;5.40;;;15.60;99.30;;;;;;7400347;19;20011;-72
2023/10/26 02:35:34;;;;;;;8.25;4.75;;;15.70;99.40;;;;;;7377772;19;20006;-72
2023/10/26 02:38:03;;;;;;;6.93;5.35;;;15.70;99.40;;;;;;7378232;19;20027;-72
2023/10/26 02:40:32;;;;;;;7.07;5.15;;;15.70;99.40;;;;;;7378898;19;20051;-73
2023/10/26 02:43:01;;;;;;;5.10;4.60;;;15.70;99.40;;;;;;7377359;19;20071;-73
2023/10/26 02:45:30;;;;;;;7.22;5.50;;;15.70;99.50;;;;;;7378457;19;20003;-73
2023/10/26 02:47:59;;;;;;;9.68;5.32;;;15.70;99.90;;;;;;7399393;19;20709;-73
2023/10/26 02:50:30;;;;;;;6.95;4.70;;;15.70;99.70;;;;;;7377638;19;20019;-73
2023/10/26 02:53:01;;;;;;;5.97;4.95;;;15.60;99.70;;;;;;7377951;19;20007;-73
2023/10/26 02:55:30;;;;;;;6.15;4.50;;;15.60;99.70;;;;;;7378019;19;20291;-72
2023/10/26 02:57:59;;;;;;;5.32;4.28;;;15.60;99.70;;;;;;7378450;19;20026;-72
2023/10/26 03:00:28;;;;;;;6.05;4.63;;;15.70;99.80;;;;;;7377825;19;20353;-72
2023/10/26 03:02:57;;;;;;;5.07;4.57;;;15.70;99.80;;;;;;7398920;19;20010;-72
2023/10/26 03:05:26;;;;;;;10.60;5.05;;;15.70;99.90;;;;;;7378614;19;20038;-73
2023/10/26 03:07:57;;;;;;;7.53;5.05;;;15.70;99.90;;;;;;7377371;19;20024;-73
2023/10/26 03:10:27;;;;;;;5.07;4.43;;;15.70;99.90;;;;;;7377605;19;20088;-73
2023/10/26 03:12:55;;;;;;;5.45;4.78;;;15.70;99.90;;;;;;7377899;19;20078;-72
2023/10/26 03:15:24;;;;;;;5.18;3.85;;;15.70;99.90;;;;;;7377612;19;20003;-72
2023/10/26 03:17:53;;;;;;;7.13;4.05;;;15.70;99.90;;;;;;7405570;19;20003;-72
2023/10/26 03:20:22;;;;;;;4.38;3.75;;;15.70;99.90;;;;;;7384613;19;20058;-72
2023/10/26 03:22:50;;;;;;;5.30;3.40;;;15.70;99.90;;;;;;7384975;19;20016;-73
2023/10/26 03:25:22;;;;;;;3.60;3.10;;;15.70;99.90;;;;;;7384868;19;20011;-73
2023/10/26 03:27:50;;;;;;;6.43;3.17;;;15.70;99.90;;;;;;7383058;19;20070;-72
2023/10/26 03:30:20;;;;;;;4.25;3.30;;;15.70;99.90;;;;;;7384887;19;20041;-72
2023/10/26 03:32:48;;;;;;;4.10;3.10;;;15.80;99.90;;;;;;7405551;19;20574;-72
2023/10/26 03:35:17;;;;;;;3.72;3.10;;;15.70;99.90;;;;;;7384087;19;20016;-72
2023/10/26 03:37:46;;;;;;;3.70;3.35;;;15.70;99.90;;;;;;7383175;19;20015;-73
2023/10/26 03:40:16;;;;;;;6.15;3.50;;;15.70;99.90;;;;;;7384369;19;20007;-73
2023/10/26 03:42:47;;;;;;;3.53;3.22;;;15.80;99.90;;;;;;7383644;19;20030;-73
2023/10/26 03:45:16;;;;;;;7.25;3.33;;;15.70;99.90;;;;;;7404391;19;20032;-73
2023/10/26 03:47:44;;;;;;;7.47;3.35;;;15.80;99.90;;;;;;7406322;19;20260;-73
2023/10/26 03:50:13;;;;;;;4.07;3.38;;;15.80;99.90;;;;;;7384773;19;20011;-72
2023/10/26 03:52:42;;;;;;;7.05;3.60;;;15.80;99.90;;;;;;7384962;19;20070;-73
2023/10/26 03:55:11;;;;;;;8.40;3.75;;;15.80;99.90;;;;;;7384216;19;20047;-72
2023/10/26 03:57:39;;;;;;;6.63;3.95;;;15.80;99.90;;;;;;7382322;19;20070;-73
2023/10/26 04:00:12;;;;;;;5.13;4.10;;;15.80;99.90;;;;;;7405870;19;20015;-72
2023/10/26 04:02:41;;;;;;;5.47;3.92;;;15.80;99.90;;;;;;7386695;19;20007;-73
2023/10/26 04:05:10;;;;;;;4.43;3.80;;;15.80;99.90;;;;;;7383112;19;20018;-73
2023/10/26 04:07:40;;;;;;;6.68;4.78;;;15.80;99.90;;;;;;7383274;19;20006;-73
2023/10/26 04:10:10;;;;;;;6.15;4.95;;;15.80;99.90;;;;;;7382905;19;20385;-76
2023/10/26 04:12:38;;;;;;;8.50;5.15;;;15.80;99.90;;;;;;7383276;19;20035;-73
2023/10/26 04:15:11;;;;;;;8.27;4.97;;;15.80;99.90;;;;;;7404872;19;20011;-73
2023/10/26 04:17:39;;;;;;;8.20;5.90;;;15.80;99.90;;;;;;7380159;19;20003;-73
2023/10/26 04:20:10;;;;;;;9.60;5.50;;;15.80;99.90;;;;;;7382719;19;20098;-73
2023/10/26 04:22:39;;;;;;;8.63;5.82;;;15.90;99.90;;;;;;7383020;19;20013;-72
2023/10/26 04:25:08;;;;;;;8.65;6.03;;;15.90;99.90;;;;;;7382908;19;20003;-73
2023/10/26 04:27:37;;;;;;;7.43;6.10;;;15.90;99.90;;;;;;7382509;19;19996;-73
2023/10/26 04:30:07;;;;;;;8.45;5.95;;;15.90;99.90;;;;;;7405178;19;20003;-73
2023/10/26 04:32:42;;;;;;;9.68;6.88;;;15.90;99.90;;;;;;7381696;19;20044;-72
2023/10/26 04:35:11;;;;;;;11.52;6.45;;;15.90;99.90;;;;;;7382142;19;20250;-73
2023/10/26 04:37:39;;;;;;;9.35;6.40;;;15.90;99.90;;;;;;7382054;19;20006;-73
2023/10/26 04:40:10;;;;;;;7.88;6.35;;;15.90;99.90;;;;;;7382370;19;20006;-73
2023/10/26 04:42:39;;;;;;;12.30;6.22;;;15.90;99.90;;;;;;7382669;19;20035;-72
2023/10/26 04:45:09;;;;;;;8.05;6.30;;;15.90;99.90;;;;;;7403965;19;20078;-72
2023/10/26 04:47:40;;;;;;;10.02;7.15;;;15.90;99.90;;;;;;7381403;19;20062;-73
2023/10/26 04:50:11;;;;;;;9.32;6.45;;;15.90;99.90;;;;;;7381830;19;20109;-73
2023/10/26 04:52:39;;;;;;;9.13;6.20;;;15.90;99.90;;;;;;7382209;19;20023;-73
2023/10/26 04:55:08;;;;;;;8.63;6.20;;;15.90;99.90;;;;;;7382479;19;20289;-72
2023/10/26 04:57:37;;;;;;;10.65;7.13;;;15.90;99.90;;;;;;7380805;19;20004;-72
2023/10/26 05:00:09;;;;;;;10.82;6.60;;;15.90;99.90;;;;;;7403610;19;20074;-73
2023/10/26 05:02:40;;;;;;;10.30;7.07;;;15.90;99.90;;;;;;7384326;19;20234;-72
2023/10/26 05:05:10;;;;;;;10.57;6.38;;;16.00;99.90;;;;;;7380632;19;20280;-72
2023/10/26 05:07:39;;;;;;;10.70;6.93;;;15.90;99.90;;;;;;7380974;19;20006;-72
2023/10/26 05:10:09;;;;;;;11.13;6.15;;;15.90;99.90;;;;;;7380613;19;20007;-73
2023/10/26 05:12:38;;;;;;;10.48;6.93;;;15.90;99.90;;;;;;7382417;19;20665;-72
2023/10/26 05:15:08;;;;;;;8.27;6.47;;;16.00;99.90;;;;;;7403593;19;20010;-73
2023/10/26 05:17:39;;;;;;;9.65;5.95;;;15.90;99.90;;;;;;7379182;19;20248;-73
2023/10/26 05:20:11;;;;;;;11.40;7.00;;;16.00;99.90;;;;;;7380839;19;20015;-73
2023/10/26 05:22:39;;;;;;;;;;;16.00;99.90;;;;;;7382124;19;20003;-73
2023/10/26 05:25:11;;;;;;;10.05;6.28;;;16.00;99.90;;;;;;7381001;19;19914;-73
2023/10/26 05:27:40;;;;;;;9.88;6.53;;;16.00;99.90;;;;;;7381444;19;20028;-73
2023/10/26 05:30:10;;;;;;;11.38;7.07;;;16.00;99.90;;;;;;7402480;19;20003;-73
2023/10/26 05:32:41;;;;;;;10.63;6.97;;;16.00;99.90;;;;;;7380017;19;20064;-73
2023/10/26 05:35:10;;;;;;;9.57;6.10;;;16.00;99.90;;;;;;7380512;19;20002;-73
2023/10/26 05:37:39;;;;;;;12.77;8.18;;;16.00;99.90;;;;;;7380891;19;20011;-73
2023/10/26 05:40:09;;;;;;;14.90;7.97;;;16.00;99.90;;;;;;7380601;19;20020;-73
2023/10/26 05:42:38;;;;;;;13.30;8.65;;;16.00;99.90;;;;;;7379963;19;20070;-73
2023/10/26 05:45:08;;;;;;;9.30;5.63;;;16.00;99.90;;;;;;7401471;19;20281;-73
2023/10/26 05:47:36;;;;;;;10.02;5.85;;;16.00;99.90;;;;;;7379454;19;20252;-73
2023/10/26 05:50:09;;;;;;;8.00;4.40;;;16.00;99.90;;;;;;7379717;19;20409;-73
2023/10/26 05:52:38;;;;;;;5.28;3.63;;;16.00;99.90;;;;;;7380404;19;20034;-72
2023/10/26 05:55:08;;;;;;;5.95;2.90;;;16.00;99.90;;;;;;7380006;19;20026;-72
2023/10/26 05:57:37;;;;;;;1.52;1.42;;;15.80;99.90;;;;;;7379147;19;19995;-72
2023/10/26 06:00:06;;;;;;;10.68;1.35;;;15.80;99.90;;;;;;7401379;19;20051;-72
2023/10/26 06:02:35;;;;;;;2.20;1.10;;;15.70;99.90;;;;;;7382498;19;20013;-72
2023/10/26 06:05:04;;;;;;;3.53;1.02;;;15.60;99.90;;;;;;7378976;19;20007;-72
2023/10/26 06:07:35;;;;;;;1.90;1.00;;;15.80;99.90;;;;;;7379274;19;20010;-72
2023/10/26 06:10:05;;;;;;;6.45;0.98;;;15.80;99.90;;;;;;7379540;19;20070;-72
2023/10/26 06:12:34;;;;;;;3.58;1.10;;;15.70;99.90;;;;;;7379820;19;20098;-72
2023/10/26 06:15:03;;;;;;;8.13;1.25;;;15.40;99.90;;;;;;7401224;19;20017;-73
2023/10/26 06:17:31;;;;;;;13.40;1.77;;;15.20;99.90;;;;;;7378571;19;20380;-73
2023/10/26 06:20:00;;;;;;;14.95;2.08;;;15.10;99.90;;;;;;7379806;19;20062;-73
2023/10/26 06:22:29;;;;;;;13.02;2.10;;;14.80;99.90;;;;;;7380192;19;20003;-73
2023/10/26 06:25:00;;;;;;;32.47;3.17;;;14.90;99.90;;;;;;7380052;19;20011;-73
2023/10/26 06:27:28;;;;;;;18.40;1.98;;;15.00;99.90;;;;;;7378907;19;20070;-73
2023/10/26 06:29:57;;;;;;;24.27;3.38;;;14.80;99.90;;;;;;7400425;19;20010;-74
2023/10/26 06:32:26;;;;;;;20.27;2.10;;;14.70;99.90;;;;;;7378338;19;20011;-73
2023/10/26 06:34:54;;;;;;;19.33;2.65;;;15.10;99.90;;;;;;7378600;19;20016;-73
2023/10/26 06:37:23;;;;;;;33.17;3.10;;;15.10;99.90;;;;;;7378281;19;20002;-73
2023/10/26 06:39:52;;;;;;;23.17;2.58;;;15.20;99.90;;;;;;7378747;19;20020;-73
2023/10/26 06:42:23;;;;;;;28.52;2.55;;;15.30;99.90;;;;;;7378292;19;20010;-73
2023/10/26 06:44:52;;;;;;;25.73;3.03;;;15.30;99.90;;;;;;7400255;19;20011;-73
2023/10/26 06:47:20;;;;;;;18.10;2.90;;;15.40;99.90;;;;;;7378010;19;20361;-73
2023/10/26 06:49:49;;;;;;;18.30;3.03;;;15.50;99.90;;;;;;7378340;19;20026;-73
2023/10/26 06:52:18;;;;;;;26.33;3.42;;;15.60;99.90;;;;;;7378249;19;20063;-72
2023/10/26 06:54:50;;;;;;;25.98;3.20;;;15.40;99.90;;;;;;7378742;19;20006;-72
2023/10/26 06:57:18;;;;;;;23.98;2.60;;;15.30;99.90;;;;;;7377728;19;20007;-72
2023/10/26 06:59:50;;;;;;;17.83;2.33;;;15.40;99.90;;;;;;7399484;19;20017;-72
2023/10/26 07:02:18;;;;;;;25.65;3.35;;;15.40;99.90;;;;;;7377788;19;20011;-72
2023/10/26 07:04:47;;;;;;;29.45;4.15;;;15.40;99.90;;;;;;7377940;19;20059;-72
2023/10/26 07:07:16;;;;;;;31.88;4.03;;;15.40;99.90;;;;;;7377942;19;20020;-72
2023/10/26 07:09:45;;;;;;;30.30;3.55;;;15.40;99.90;;;;;;7378175;19;20067;-71
2023/10/26 07:12:14;;;;;;;41.22;3.55;;;15.40;99.90;;;;;;7399023;19;20014;-72
2023/10/26 07:14:43;;;;;;;25.02;3.63;;;15.20;99.90;;;;;;7377329;19;20002;-72
2023/10/26 07:17:15;;;;;;;31.55;4.13;;;15.20;99.90;;;;;;7378939;19;20011;-74
2023/10/26 07:19:44;;;;;;;25.15;3.90;;;15.30;99.90;;;;;;7378238;19;20007;-73
2023/10/26 07:22:12;;;;;;;29.83;3.63;;;15.30;99.90;;;;;;7378206;19;20002;-73
2023/10/26 07:24:41;;;;;;;34.53;3.42;;;15.20;99.90;;;;;;7377953;19;20070;-75
2023/10/26 07:27:10;;;;;;;27.02;3.60;;;15.30;99.90;;;;;;7399170;19;20046;-75
2023/10/26 07:29:38;;;;;;;23.70;3.35;;;15.20;99.90;;;;;;7376882;19;20006;-73
2023/10/26 07:32:08;;;;;;;33.72;4.50;;;15.40;99.90;;;;;;7376779;19;20014;-74
2023/10/26 07:34:39;;;;;;;47.45;4.47;;;15.40;99.90;;;;;;7377695;19;20024;-74
2023/10/26 07:37:08;;;;;;;22.15;3.25;;;15.40;99.90;;;;;;7376465;19;20334;-71
2023/10/26 07:39:37;;;;;;;26.98;3.88;;;15.50;99.90;;;;;;7377909;19;19996;-75
2023/10/26 07:42:06;;;;;;;27.20;4.05;;;15.60;99.90;;;;;;7398824;19;20020;-73
2023/10/26 07:44:36;;;;;;;29.10;3.40;;;15.70;99.70;;;;;;7375336;19;20232;-74
2023/10/26 07:47:07;;;;;;;37.65;4.20;;;15.70;99.50;;;;;;7377226;19;19998;-75
2023/10/26 07:49:39;;;;;;;27.85;3.58;;;15.80;99.50;;;;;;7377128;19;20006;-75
2023/10/26 07:52:08;;;;;;;24.02;3.35;;;15.80;99.50;;;;;;7377132;19;20002;-75
2023/10/26 07:54:36;;;;;;;32.10;3.65;;;15.90;99.50;;;;;;7377123;19;20040;-74
2023/10/26 07:57:06;;;;;;;27.20;3.80;;;15.90;99.40;;;;;;7398224;19;20017;-75
2023/10/26 07:59:35;;;;;;;36.67;3.70;;;15.90;99.30;;;;;;7376444;19;20429;-75
2023/10/26 08:02:04;;;;;;;28.98;3.90;;;15.90;99.20;;;;;;7377169;19;20688;-76
2023/10/26 08:04:32;;;;;;;24.38;3.60;;;15.80;99.40;;;;;;7382759;19;20011;-77
2023/10/26 08:07:04;;;;;;;24.98;3.05;;;15.70;99.30;;;;;;7385066;19;20013;-76
2023/10/26 08:09:34;;;;;;;35.40;3.72;;;15.80;99.40;;;;;;7384151;19;20007;-76
2023/10/26 08:12:03;;;;;;;23.27;3.58;;;15.80;99.20;;;;;;7406639;19;20083;-76
2023/10/26 08:14:32;;;;;;;34.38;3.35;;;15.90;99.20;;;;;;7383943;19;20006;-76
2023/10/26 08:17:01;;;;;;;34.05;4.10;;;15.90;99.30;;;;;;7383945;19;20011;-75
2023/10/26 08:19:29;;;;;;;24.20;3.42;;;15.90;99.20;;;;;;7382649;19;20006;-75
2023/10/26 08:21:58;;;;;;;35.65;3.67;;;16.00;99.30;;;;;;7383891;19;20027;-76
2023/10/26 08:24:30;;;;;;;25.63;3.38;;;15.90;99.20;;;;;;7384128;19;20018;-76
2023/10/26 08:26:58;;;;;;;26.77;3.67;;;16.00;99.20;;;;;;7404917;19;20366;-77
2023/10/26 08:29:28;;;;;;;27.63;3.10;;;16.00;99.20;;;;;;7382517;19;20268;-73
2023/10/26 08:31:57;;;;;;;28.40;4.18;;;16.00;99.20;;;;;;7383695;19;20488;-75
2023/10/26 08:34:26;;;;;;;23.75;3.78;;;16.00;99.30;;;;;;7383699;19;20006;-74
2023/10/26 08:36:54;;;;;;;25.75;3.25;;;16.00;99.30;;;;;;7384316;19;20241;-76
2023/10/26 08:39:24;;;;;;;23.40;2.83;;;16.10;99.40;;;;;;7382109;19;20020;-74
2023/10/26 08:41:59;;;;;;;21.58;3.10;;;16.10;99.40;;;;;;7414301;19;20024;-78
2023/10/26 08:44:30;;;;;;;24.75;3.50;;;16.10;99.20;;;;;;7382111;19;20010;-78
2023/10/26 08:47:01;;;;;;;25.98;3.05;;;16.20;99.30;;;;;;7382536;19;20017;-74
2023/10/26 08:49:30;;;;;;;16.02;2.92;;;16.20;99.30;;;;;;7382956;19;20003;-76
2023/10/26 08:52:00;;;;;;;25.25;3.08;;;16.10;99.40;;;;;;7382610;19;20011;-75
2023/10/26 08:54:29;;;;;;;27.75;3.42;;;16.10;99.50;;;;;;7383143;19;20074;-75
2023/10/26 08:57:12;;;;;;;25.25;3.22;;;16.10;99.60;;;;;;7403940;19;20041;-77
2023/10/26 08:59:42;;;;;;;29.38;3.22;;;16.10;99.60;;;;;;7379419;19;20251;-75
2023/10/26 09:02:11;;;;;;;29.77;3.38;;;16.20;99.60;;;;;;7382464;19;20003;-77
2023/10/26 09:04:40;;;;;;;24.50;3.70;;;16.20;99.50;;;;;;7382629;19;20007;-76
2023/10/26 09:07:08;;;;;;;27.88;4.13;;;16.20;99.90;;;;;;7382439;19;20014;-77
2023/10/26 09:09:46;;;;;;;36.08;4.20;;;16.10;99.50;;;;;;7383445;19;19992;-76
2023/10/26 09:12:18;;;;;;;21.17;3.35;;;16.00;99.40;;;;;;7404253;19;20070;-75
2023/10/26 09:15:00;;;;;;;31.50;3.42;;;16.10;99.40;;;;;;7380723;19;20288;-76
2023/10/26 09:17:30;;;;;;;22.13;3.63;;;16.10;99.40;;;;;;7381005;19;20374;-75
2023/10/26 09:19:59;;;;;;;23.73;3.03;;;15.80;99.20;;;;;;7381409;19;20010;-77
2023/10/26 09:22:38;;;;;;;23.65;3.80;;;15.80;99.50;;;;;;7381916;19;20114;-75
2023/10/26 09:25:10;;;;;;;25.80;3.58;;;15.90;99.40;;;;;;7381554;19;20013;-76
2023/10/26 09:27:42;;;;;;;28.33;3.75;;;16.00;99.20;;;;;;7381315;19;20020;-77
2023/10/26 09:30:25;;;;;;;32.15;3.95;;;16.10;99.20;;;;;;7402756;19;20010;-74
2023/10/26 09:32:54;;;;;;;21.90;3.65;;;16.10;98.90;;;;;;7380992;19;20276;-75
2023/10/26 09:35:27;;;;;;;38.67;4.22;;;16.20;98.50;;;;;;7380168;19;20007;-76
2023/10/26 09:38:00;;;;;;;28.05;4.13;;;16.20;98.50;;;;;;7382004;19;20018;-77
2023/10/26 09:40:29;;;;;;;33.28;3.50;;;16.30;98.60;;;;;;7381608;19;20002;-74
2023/10/26 09:43:00;;;;;;;34.05;3.45;;;16.30;98.40;;;;;;7380052;19;20027;-75
2023/10/26 09:45:29;;;;;;;33.80;4.00;;;16.30;98.30;;;;;;7378706;19;20020;-75
2023/10/26 09:47:59;;;;;;;31.17;3.22;;;16.30;98.10;;;;;;7402175;19;20011;-75
2023/10/26 09:50:29;;;;;;;32.22;3.97;;;16.30;98.20;;;;;;7379854;19;20007;-75
2023/10/26 09:52:59;;;;;;;30.55;4.32;;;16.30;98.20;;;;;;7380215;19;20759;-76
2023/10/26 09:55:28;;;;;;;23.25;3.80;;;16.30;98.20;;;;;;7382061;19;20394;-76
2023/10/26 09:58:04;;;;;;;27.63;3.25;;;16.30;98.10;;;;;;7380313;19;20030;-77
2023/10/26 10:00:34;;;;;;;30.25;3.40;;;16.40;98.00;;;;;;7380503;19;20059;-75
2023/10/26 10:03:13;;;;;;;26.27;4.05;;;16.40;97.90;;;;;;7401705;19;20010;-76
2023/10/26 10:05:42;;;;;;;20.73;3.40;;;16.40;97.90;;;;;;7379617;19;20011;-76
2023/10/26 10:08:12;;;;;;;33.35;4.30;;;16.50;97.80;;;;;;7379050;19;20281;-75
2023/10/26 10:11:17;;;;;;;30.17;3.70;;;16.60;97.60;;;;;;7380543;19;20030;-74
2023/10/26 10:13:48;;;;;;;32.13;4.65;;;16.40;97.80;;;;;;7379268;19;20034;-74
2023/10/26 10:16:47;;;;;;;29.23;3.90;;;16.40;97.60;;;;;;7379962;19;20023;-74
2023/10/26 10:19:19;;;;;;;28.05;3.50;;;16.30;97.90;;;;;;7379073;19;20066;-74
2023/10/26 10:21:49;;;;;;;24.02;3.47;;;16.30;98.10;;;;;;7379197;19;20107;-76
2023/10/26 10:24:53;;;;;;;35.72;4.30;;;16.20;98.10;;;;;;7391561;19;20006;-74
2023/10/26 10:27:22;;;;;;;25.23;3.90;;;16.30;98.20;;;;;;7378754;19;20027;-74
2023/10/26 10:29:57;;;;;;;23.20;3.65;;;16.40;98.20;;;;;;7400270;19;20058;-74
2023/10/26 10:32:51;;;;;;;31.50;3.60;;;16.50;97.90;;;;;;7378634;19;20023;-74
2023/10/26 10:35:43;;;;;;;23.33;4.13;;;16.50;97.90;;;;;;7379406;19;20013;-74
2023/10/26 10:38:24;;;;;;;;;;;16.60;97.80;;;;;;7379049;19;20002;-74
2023/10/26 10:41:14;;;;;;;25.77;3.47;;;16.50;97.10;;;;;;7378702;19;19911;-75
2023/10/26 10:43:46;;;;;;;21.50;3.40;;;16.50;97.70;;;;;;7377469;19;20346;-74
2023/10/26 10:46:21;;;;;;;27.42;3.95;;;16.60;97.60;;;;;;7378171;19;20023;-74
2023/10/26 10:49:00;;;;;;;27.90;3.90;;;16.60;97.60;;;;;;7378853;19;20007;-74
2023/10/26 10:51:33;;;;;;;21.70;2.80;;;16.60;97.50;;;;;;7382014;19;20010;-74
2023/10/26 10:54:03;;;;;;;34.03;4.15;;;16.70;97.40;;;;;;7400282;19;20042;-74
2023/10/26 10:56:39;;;;;;;19.25;3.47;;;16.60;97.30;;;;;;7378186;19;20433;-74
2023/10/26 10:59:21;;;;;;;26.20;3.78;;;16.80;97.20;;;;;;7377422;19;20005;-74
2023/10/26 11:02:07;;;;;;;27.42;3.65;;;16.80;97.40;;;;;;7378587;19;19999;-74
2023/10/26 11:04:36;;;;;;;21.52;3.35;;;16.80;97.10;;;;;;7378978;19;20019;-75
2023/10/26 11:07:05;;;;;;;24.92;3.55;;;16.80;97.10;;;;;;7378804;19;20016;-74
2023/10/26 11:09:37;;;;;;;24.48;3.72;;;16.80;97.10;;;;;;7378090;19;20256;-74
2023/10/26 11:12:14;;;;;;;19.90;3.65;;;16.90;97.00;;;;;;7401185;19;20082;-74
2023/10/26 11:14:51;;;;;;;26.80;3.95;;;16.90;96.70;;;;;;7377551;19;20062;-74
2023/10/26 11:17:22;;;;;;;21.42;3.70;;;16.90;97.10;;;;;;7377400;19;20009;-74
2023/10/26 11:19:53;;;;;;;18.63;3.08;;;16.90;97.10;;;;;;7377302;19;20325;-74
2023/10/26 11:22:22;;;;;;;27.63;3.70;;;17.00;96.80;;;;;;7378006;19;20274;-74
2023/10/26 11:24:51;;;;;;;16.45;3.65;;;16.90;96.90;;;;;;7377819;19;19999;-74
2023/10/26 11:27:21;;;;;;;23.95;3.63;;;17.00;97.00;;;;;;7376985;19;20544;-74
2023/10/26 11:30:04;;;;;;;25.02;4.40;;;16.90;96.70;;;;;;7400191;19;20078;-74
2023/10/26 11:32:37;;;;;;;23.42;3.85;;;16.90;96.80;;;;;;7376923;19;20389;-74
2023/10/26 11:35:07;;;;;;;26.23;4.15;;;17.00;96.40;;;;;;7376943;19;20007;-74
2023/10/26 11:37:35;;;;;;;27.77;3.55;;;17.00;96.60;;;;;;7379953;19;20002;-74
2023/10/26 11:40:05;;;;;;;20.85;3.42;;;17.20;96.60;;;;;;7383908;19;20031;-74
2023/10/26 11:42:50;;;;;;;23.30;3.40;;;17.20;96.40;;;;;;7383702;19;20058;-74
2023/10/26 11:45:19;;;;;;;23.90;3.63;;;17.20;96.30;;;;;;7384793;19;20018;-75
2023/10/26 11:47:53;;;;;;;31.60;3.92;;;17.30;96.40;;;;;;7409225;19;20010;-74
2023/10/26 11:50:26;;;;;;;27.77;3.45;;;17.30;96.20;;;;;;7383982;19;20405;-74
2023/10/26 11:52:56;;;;;;;20.60;3.45;;;17.20;95.70;;;;;;7384741;19;20015;-75
2023/10/26 11:55:25;;;;;;;29.88;3.92;;;17.10;95.90;;;;;;7384357;19;20385;-75
2023/10/26 11:57:56;;;;;;;22.55;3.17;;;17.20;96.10;;;;;;7384610;19;20010;-75
2023/10/26 12:00:25;;;;;;;22.13;4.22;;;17.30;96.20;;;;;;7381764;19;20402;-75
2023/10/26 12:02:57;;;;;;;25.35;3.45;;;17.40;96.20;;;;;;7405235;19;20058;-74
2023/10/26 12:05:27;;;;;;;28.23;4.05;;;17.40;96.00;;;;;;7383308;19;20249;-74
2023/10/26 12:07:56;;;;;;;30.10;3.92;;;17.50;95.80;;;;;;7383457;19;20003;-74
2023/10/26 12:10:26;;;;;;;27.30;3.17;;;17.30;95.80;;;;;;7383622;19;20010;-74
2023/10/26 12:12:55;;;;;;;28.58;4.18;;;17.40;95.90;;;;;;7384082;19;20011;-74
2023/10/26 12:15:25;;;;;;;28.35;4.38;;;17.40;96.00;;;;;;7383567;19;20019;-74
2023/10/26 12:17:57;;;;;;;27.70;3.50;;;17.40;95.90;;;;;;7405231;19;20010;-74
2023/10/26 12:20:25;;;;;;;26.73;3.63;;;17.40;96.00;;;;;;7380762;19;20017;-75
2023/10/26 12:22:54;;;;;;;25.60;3.60;;;17.40;96.20;;;;;;7383240;19;20010;-74
2023/10/26 12:25:23;;;;;;;25.80;3.42;;;17.50;95.80;;;;;;7382870;19;19999;-74
2023/10/26 12:27:52;;;;;;;36.33;4.38;;;17.30;95.80;;;;;;7383470;19;20032;-75
2023/10/26 12:30:21;;;;;;;24.35;3.20;;;17.20;95.70;;;;;;7382805;19;20006;-76
2023/10/26 12:32:50;;;;;;;27.08;3.38;;;17.20;95.90;;;;;;7404356;19;20002;-74
2023/10/26 12:35:21;;;;;;;35.38;3.83;;;17.20;95.80;;;;;;7382107;19;20484;-74
2023/10/26 12:37:51;;;;;;;21.30;4.03;;;17.30;96.10;;;;;;7381783;19;20300;-74
2023/10/26 12:40:20;;;;;;;25.60;3.38;;;17.40;96.00;;;;;;7382008;19;20010;-74
2023/10/26 12:42:49;;;;;;;23.52;4.03;;;17.40;95.80;;;;;;7382455;19;20074;-74
2023/10/26 12:45:18;;;;;;;29.27;4.28;;;17.30;95.90;;;;;;7386643;19;20071;-74
2023/10/26 12:47:46;;;;;;;20.42;3.75;;;17.40;96.00;;;;;;7404127;19;20030;-75
2023/10/26 12:50:15;;;;;;;27.95;3.72;;;17.50;95.90;;;;;;7379751;19;20040;-75
2023/10/26 12:52:47;;;;;;;26.20;4.45;;;17.50;95.70;;;;;;7382325;19;20015;-75
2023/10/26 12:55:16;;;;;;;31.70;4.95;;;17.60;95.80;;;;;;7382481;19;20727;-74
2023/10/26 12:57:44;;;;;;;30.88;4.32;;;17.60;95.80;;;;;;7382628;19;20007;-74